Time;durP1;ratioP1;P1;durP2;ratioP2;P2;SDS_P1;SDS_P2;PMS_P1;PMS_P2;Temp;Humidity;BMP_temperature;BMP_pressure;BME280_temperature;BME280_humidity;BME280_pressure;Samples;Min_cycle;Max_cycle;Signal;HPM_P1;HPM_P2
2021/10/20 00:00:20;;;;;;;0.80;0.80;;;;;;;;;;7329838;19;161857;-15
2021/10/20 00:02:49;;;;;;;0.90;0.90;;;;;;;;;;7327751;19;162512;-15
2021/10/20 00:05:17;;;;;;;0.90;0.90;;;;;;;;;;7328027;19;154014;-13
2021/10/20 00:07:46;;;;;;;0.90;0.90;;;;;;;;;;7329083;19;153497;-17
2021/10/20 00:10:16;;;;;;;0.80;0.80;;;;;;;;;;7329468;19;161915;-13
2021/10/20 00:12:45;;;;;;;1.00;1.00;;;;;;;;;;7330173;19;162409;-13
2021/10/20 00:15:17;;;;;;;0.90;0.90;;;;;;;;;;7329933;19;154002;-14
2021/10/20 00:17:46;;;;;;;1.10;1.10;;;;;;;;;;7328482;19;153621;-15
2021/10/20 00:20:18;;;;;;;1.25;0.90;;;;;;;;;;7329383;19;162001;-14
2021/10/20 00:22:47;;;;;;;0.85;0.85;;;;;;;;;;7329572;19;162408;-16
2021/10/20 00:25:16;;;;;;;0.85;0.85;;;;;;;;;;7331440;19;154066;-16
2021/10/20 00:27:45;;;;;;;1.20;1.10;;;;;;;;;;7332113;19;153554;-13
2021/10/20 00:30:15;;;;;;;1.00;1.00;;;;;;;;;;7327497;19;161846;-13
2021/10/20 00:32:44;;;;;;;0.70;0.70;;;;;;;;;;7331604;19;162361;-15
2021/10/20 00:35:12;;;;;;;0.90;0.90;;;;;;;;;;7329275;19;154563;-13
2021/10/20 00:37:40;;;;;;;0.77;0.77;;;;;;;;;;7329042;19;153538;-13
2021/10/20 00:40:10;;;;;;;0.93;0.90;;;;;;;;;;7331002;19;161643;-16
2021/10/20 00:42:38;;;;;;;1.00;1.00;;;;;;;;;;7331133;19;162436;-16
2021/10/20 00:45:07;;;;;;;0.80;0.80;;;;;;;;;;7329219;19;154084;-15
2021/10/20 00:47:36;;;;;;;0.90;0.90;;;;;;;;;;7330274;19;153492;-16
2021/10/20 00:50:06;;;;;;;0.98;0.98;;;;;;;;;;7325806;19;163020;-16
2021/10/20 00:52:34;;;;;;;1.00;1.00;;;;;;;;;;7333594;19;162646;-14
2021/10/20 00:55:04;;;;;;;0.85;0.85;;;;;;;;;;7326992;19;155230;-14
2021/10/20 07:46:16;;;;;;;0.60;0.60;;;;;;;;;;4550980;19;3329396;-15
2021/10/20 07:48:45;;;;;;;0.75;0.75;;;;;;;;;;7360919;19;162136;-15
2021/10/20 07:51:13;;;;;;;0.70;0.70;;;;;;;;;;7363437;19;154396;-15
2021/10/20 07:53:41;;;;;;;0.60;0.60;;;;;;;;;;7363192;19;153498;-16
2021/10/20 07:56:09;;;;;;;0.60;0.60;;;;;;;;;;7361685;19;161777;-15
2021/10/20 07:58:36;;;;;;;0.60;0.60;;;;;;;;;;7355493;19;162337;-16
2021/10/20 08:01:04;;;;;;;0.60;0.60;;;;;;;;;;7334122;19;154095;-16
2021/10/20 08:03:32;;;;;;;0.60;0.60;;;;;;;;;;7334126;19;153472;-17
2021/10/20 08:06:00;;;;;;;0.70;0.70;;;;;;;;;;7333785;19;162094;-16
2021/10/20 08:08:28;;;;;;;0.60;0.60;;;;;;;;;;7331972;19;162329;-15
2021/10/20 08:10:56;;;;;;;0.55;0.55;;;;;;;;;;7334379;19;154007;-14
2021/10/20 08:13:24;;;;;;;0.60;0.60;;;;;;;;;;7332249;19;153630;-17
2021/10/20 08:15:52;;;;;;;0.68;0.68;;;;;;;;;;7332370;19;162082;-17
2021/10/20 08:18:20;;;;;;;0.73;0.70;;;;;;;;;;7333359;19;162333;-18
2021/10/20 08:20:48;;;;;;;0.60;0.60;;;;;;;;;;7333990;19;153935;-17
2021/10/20 08:23:16;;;;;;;0.60;0.60;;;;;;;;;;7333923;19;153554;-17
2021/10/20 08:25:45;;;;;;;0.60;0.60;;;;;;;;;;7332321;19;161815;-18
2021/10/20 08:28:13;;;;;;;0.52;0.52;;;;;;;;;;7331065;19;162410;-18
2021/10/20 08:30:42;;;;;;;0.68;0.68;;;;;;;;;;7333996;19;154062;-17
2021/10/20 08:33:10;;;;;;;0.70;0.70;;;;;;;;;;7333983;19;153693;-17
2021/10/20 08:35:38;;;;;;;0.47;0.47;;;;;;;;;;7333666;19;161936;-15
2021/10/20 08:38:06;;;;;;;0.52;0.52;;;;;;;;;;7333294;19;162344;-18
2021/10/20 08:40:38;;;;;;;0.70;0.70;;;;;;;;;;7333983;19;153995;-17
2021/10/20 08:43:07;;;;;;;0.50;0.50;;;;;;;;;;7333491;19;153464;-15
2021/10/20 08:45:35;;;;;;;0.63;0.63;;;;;;;;;;7330888;19;162078;-18
2021/10/20 08:48:03;;;;;;;0.52;0.52;;;;;;;;;;7332158;19;162310;-14
2021/10/20 08:50:34;;;;;;;0.60;0.60;;;;;;;;;;7333592;19;153918;-16
2021/10/20 08:53:04;;;;;;;0.75;0.60;;;;;;;;;;7332501;19;153764;-17
2021/10/20 08:55:33;;;;;;;0.35;0.35;;;;;;;;;;7332835;19;161859;-17
2021/10/20 08:58:01;;;;;;;0.50;0.50;;;;;;;;;;7332694;19;162684;-15
2021/10/20 09:00:29;;;;;;;0.50;0.50;;;;;;;;;;7332076;19;153949;-18
2021/10/20 09:02:57;;;;;;;0.50;0.50;;;;;;;;;;7331936;19;153660;-16
2021/10/20 09:05:27;;;;;;;0.60;0.60;;;;;;;;;;7332674;19;162476;-18
2021/10/20 09:07:56;;;;;;;0.60;0.60;;;;;;;;;;7331479;19;162381;-17
2021/10/20 09:10:28;;;;;;;0.47;0.47;;;;;;;;;;7330105;19;153950;-17
2021/10/20 09:12:57;;;;;;;0.50;0.50;;;;;;;;;;7332034;19;153504;-15
2021/10/20 09:15:29;;;;;;;0.50;0.50;;;;;;;;;;7332325;19;161827;-17
2021/10/20 09:17:59;;;;;;;0.50;0.50;;;;;;;;;;7332191;19;162360;-18
2021/10/20 09:20:37;;;;;;;0.50;0.50;;;;;;;;;;7332578;19;153941;-15
2021/10/20 09:23:07;;;;;;;0.60;0.60;;;;;;;;;;7332572;19;153850;-17
2021/10/20 09:25:51;;;;;;;0.60;0.60;;;;;;;;;;7330593;19;161855;-18
2021/10/20 09:28:25;;;;;;;0.50;0.50;;;;;;;;;;7330385;19;162522;-17
2021/10/20 09:30:59;;;;;;;0.60;0.60;;;;;;;;;;7332001;19;153914;-15
2021/10/20 09:33:28;;;;;;;0.52;0.52;;;;;;;;;;7332086;19;153515;-17
2021/10/20 09:36:14;;;;;;;0.55;0.55;;;;;;;;;;7331433;19;161982;-17
2021/10/20 09:38:48;;;;;;;0.50;0.50;;;;;;;;;;7331393;19;162485;-19
2021/10/20 09:41:17;;;;;;;0.60;0.60;;;;;;;;;;7331566;19;153740;-16
2021/10/20 09:43:55;;;;;;;0.50;0.50;;;;;;;;;;7331433;19;153774;-15
2021/10/20 09:46:34;;;;;;;0.50;0.50;;;;;;;;;;7327911;19;161783;-17
2021/10/20 09:49:12;;;;;;;0.45;0.45;;;;;;;;;;7329124;19;162612;-19
2021/10/20 09:51:40;;;;;;;0.50;0.50;;;;;;;;;;7331576;19;153967;-15
2021/10/20 09:54:47;;;;;;;0.60;0.60;;;;;;;;;;7331218;19;153827;-16
2021/10/20 09:57:15;;;;;;;0.40;0.40;;;;;;;;;;7327648;19;162089;-18
2021/10/20 09:59:44;;;;;;;0.50;0.50;;;;;;;;;;7327788;19;162373;-16
2021/10/20 10:02:13;;;;;;;0.50;0.50;;;;;;;;;;7329306;19;154246;-18
2021/10/20 10:04:41;;;;;;;0.50;0.50;;;;;;;;;;7330877;19;153546;-17
2021/10/20 10:07:09;;;;;;;0.60;0.60;;;;;;;;;;7330228;19;161766;-16
2021/10/20 10:09:37;;;;;;;0.40;0.40;;;;;;;;;;7327857;19;162520;-16
2021/10/20 10:12:19;;;;;;;0.40;0.40;;;;;;;;;;7329404;19;153908;-16
2021/10/20 10:15:01;;;;;;;0.50;0.50;;;;;;;;;;7330746;19;153543;-16
2021/10/20 10:17:44;;;;;;;0.50;0.50;;;;;;;;;;7329034;19;162311;-16
2021/10/20 10:20:15;;;;;;;0.50;0.50;;;;;;;;;;7328886;19;162539;-18
2021/10/20 10:22:59;;;;;;;0.43;0.43;;;;;;;;;;7329563;19;154010;-16
2021/10/20 10:25:34;;;;;;;0.50;0.50;;;;;;;;;;7330238;19;153542;-18
2021/10/20 10:28:08;;;;;;;0.50;0.50;;;;;;;;;;7329496;19;161819;-15
2021/10/20 10:31:06;;;;;;;0.55;0.55;;;;;;;;;;7329751;19;162471;-15
2021/10/20 10:33:39;;;;;;;0.50;0.50;;;;;;;;;;7329510;19;154017;-19
2021/10/20 10:36:22;;;;;;;0.47;0.47;;;;;;;;;;7330071;19;153872;-18
2021/10/20 10:39:02;;;;;;;0.50;0.50;;;;;;;;;;7329503;19;161951;-15
2021/10/20 10:41:34;;;;;;;0.50;0.50;;;;;;;;;;7329391;19;162517;-16
2021/10/20 10:44:08;;;;;;;0.45;0.45;;;;;;;;;;7329504;19;154081;-18
2021/10/20 10:46:46;;;;;;;0.40;0.40;;;;;;;;;;7327109;19;153587;-17
2021/10/20 10:49:26;;;;;;;0.40;0.40;;;;;;;;;;7327065;19;161932;-18
2021/10/20 10:52:16;;;;;;;0.40;0.40;;;;;;;;;;7328862;19;162409;-17
2021/10/20 10:54:56;;;;;;;0.40;0.40;;;;;;;;;;7328877;19;154260;-16
2021/10/20 10:57:43;;;;;;;0.50;0.50;;;;;;;;;;7328822;19;153523;-15
2021/10/20 11:00:17;;;;;;;0.60;0.60;;;;;;;;;;7328332;19;161932;-18
2021/10/20 11:02:57;;;;;;;0.57;0.57;;;;;;;;;;7327570;19;162463;-18
2021/10/20 11:05:27;;;;;;;0.60;0.60;;;;;;;;;;7328283;19;153944;-18
2021/10/20 11:08:09;;;;;;;0.70;0.70;;;;;;;;;;7327762;19;153515;-18
2021/10/20 11:10:39;;;;;;;0.45;0.45;;;;;;;;;;7331714;19;161778;-16
2021/10/20 11:13:08;;;;;;;0.47;0.47;;;;;;;;;;7327979;19;162479;-16
2021/10/20 11:15:37;;;;;;;0.60;0.60;;;;;;;;;;7329872;19;153962;-18
2021/10/20 11:18:05;;;;;;;0.52;0.52;;;;;;;;;;7331013;19;153746;-16
2021/10/20 11:20:42;;;;;;;1.30;1.00;;;;;;;;;;7326069;19;161989;-16
2021/10/20 11:23:21;;;;;;;1.38;1.27;;;;;;;;;;7327171;19;162948;-16
2021/10/20 11:25:49;;;;;;;1.30;1.20;;;;;;;;;;7328184;19;154030;-17
2021/10/20 11:28:17;;;;;;;1.15;0.90;;;;;;;;;;7326605;19;153686;-16
2021/10/20 11:30:46;;;;;;;1.00;1.00;;;;;;;;;;7331473;19;161802;-16
2021/10/20 11:33:17;;;;;;;1.00;1.00;;;;;;;;;;7330362;19;162409;-18
2021/10/20 11:35:46;;;;;;;4.82;1.00;;;;;;;;;;7333558;19;153997;-18
2021/10/20 11:38:16;;;;;;;0.90;0.90;;;;;;;;;;7335827;19;153563;-17
2021/10/20 11:40:48;;;;;;;0.98;0.98;;;;;;;;;;7336025;19;161607;-18
2021/10/20 11:43:21;;;;;;;0.80;0.80;;;;;;;;;;7333339;19;162819;-17
2021/10/20 11:45:49;;;;;;;1.13;1.00;;;;;;;;;;7337482;19;154479;-17
2021/10/20 11:48:24;;;;;;;0.80;0.80;;;;;;;;;;7333688;19;153787;-18
2021/10/20 11:50:55;;;;;;;1.00;1.00;;;;;;;;;;7334892;19;162220;-17
2021/10/20 11:53:28;;;;;;;0.82;0.82;;;;;;;;;;7336282;19;162446;-18
2021/10/20 11:56:00;;;;;;;0.80;0.80;;;;;;;;;;7336181;19;154014;-18
2021/10/20 11:58:32;;;;;;;1.05;1.00;;;;;;;;;;7332706;19;153674;-18
2021/10/20 12:01:05;;;;;;;1.53;0.80;;;;;;;;;;7333678;19;161939;-17
2021/10/20 12:03:42;;;;;;;0.70;0.70;;;;;;;;;;7333583;19;162698;-18
2021/10/20 12:06:14;;;;;;;0.80;0.80;;;;;;;;;;7335103;19;154380;-18
2021/10/20 12:08:47;;;;;;;1.40;0.90;;;;;;;;;;7334067;19;153576;-18
2021/10/20 12:11:17;;;;;;;0.73;0.73;;;;;;;;;;7333386;19;161968;-16
2021/10/20 12:13:46;;;;;;;0.80;0.80;;;;;;;;;;7332723;19;162463;-16
2021/10/20 12:16:19;;;;;;;0.80;0.80;;;;;;;;;;7335648;19;153980;-18
2021/10/20 12:18:48;;;;;;;0.85;0.85;;;;;;;;;;7334513;19;153849;-27
2021/10/20 12:21:17;;;;;;;0.65;0.65;;;;;;;;;;7335878;19;162340;-18
2021/10/20 12:23:46;;;;;;;0.70;0.70;;;;;;;;;;7334562;19;162367;-16
2021/10/20 12:26:15;;;;;;;0.80;0.80;;;;;;;;;;7333206;19;154140;-17
2021/10/20 12:28:46;;;;;;;0.80;0.80;;;;;;;;;;7331637;19;153645;-18
2021/10/20 12:31:18;;;;;;;0.70;0.70;;;;;;;;;;7333205;19;161999;-17
2021/10/20 12:33:50;;;;;;;0.60;0.60;;;;;;;;;;7335951;19;162445;-17
2021/10/20 12:36:21;;;;;;;0.80;0.80;;;;;;;;;;7332804;19;153972;-16
2021/10/20 12:38:50;;;;;;;0.70;0.70;;;;;;;;;;7332541;19;153289;-17
2021/10/20 12:41:26;;;;;;;0.70;0.70;;;;;;;;;;7332751;19;162103;-18
2021/10/20 12:43:56;;;;;;;0.98;0.70;;;;;;;;;;7333564;19;162519;-18
2021/10/20 12:46:32;;;;;;;0.73;0.63;;;;;;;;;;7331710;19;154391;-17
2021/10/20 12:49:03;;;;;;;0.57;0.57;;;;;;;;;;7334626;19;153649;-18
2021/10/20 12:51:36;;;;;;;0.70;0.70;;;;;;;;;;7327757;19;161846;-16
2021/10/20 12:54:06;;;;;;;0.73;0.73;;;;;;;;;;7331084;19;164573;-17
2021/10/20 12:56:36;;;;;;;0.70;0.70;;;;;;;;;;7331007;19;154153;-17
2021/10/20 12:59:18;;;;;;;0.68;0.68;;;;;;;;;;7334004;19;153515;-17
2021/10/20 13:01:47;;;;;;;0.80;0.65;;;;;;;;;;7328779;19;161970;-18
2021/10/20 13:04:15;;;;;;;0.82;0.70;;;;;;;;;;7326960;19;162402;-16
2021/10/20 13:06:43;;;;;;;0.47;0.47;;;;;;;;;;7328353;19;154533;-14
2021/10/20 13:09:11;;;;;;;0.70;0.70;;;;;;;;;;7326012;19;155393;-15
2021/10/20 13:11:39;;;;;;;0.70;0.70;;;;;;;;;;7326283;19;161834;-16
2021/10/20 13:14:07;;;;;;;0.63;0.63;;;;;;;;;;7329001;19;162935;-16
2021/10/20 13:16:35;;;;;;;0.60;0.60;;;;;;;;;;7332271;19;153959;-17
2021/10/20 13:19:03;;;;;;;0.60;0.60;;;;;;;;;;7327818;19;153595;-17
2021/10/20 13:21:31;;;;;;;0.70;0.70;;;;;;;;;;7328307;19;161815;-18
2021/10/20 13:23:59;;;;;;;0.70;0.70;;;;;;;;;;7331495;19;162429;-15
2021/10/20 13:26:27;;;;;;;0.50;0.50;;;;;;;;;;7330177;19;154055;-17
2021/10/20 13:28:55;;;;;;;0.63;0.63;;;;;;;;;;7328908;19;154511;-17
2021/10/20 13:31:23;;;;;;;0.60;0.60;;;;;;;;;;7332300;19;161856;-19
2021/10/20 13:33:50;;;;;;;0.50;0.50;;;;;;;;;;7332277;19;162329;-17
2021/10/20 13:36:19;;;;;;;0.50;0.50;;;;;;;;;;7331789;19;153611;-16
2021/10/20 13:38:47;;;;;;;0.70;0.70;;;;;;;;;;7333402;19;153696;-17
2021/10/20 13:41:17;;;;;;;0.50;0.50;;;;;;;;;;7326520;19;161800;-15
2021/10/20 13:43:45;;;;;;;0.60;0.60;;;;;;;;;;7325453;19;162317;-16
2021/10/20 13:46:14;;;;;;;0.60;0.60;;;;;;;;;;7327048;19;153953;-16
2021/10/20 13:48:42;;;;;;;0.60;0.60;;;;;;;;;;7327293;19;153735;-15
2021/10/20 13:51:10;;;;;;;0.60;0.60;;;;;;;;;;7328162;19;162381;-19
2021/10/20 13:53:38;;;;;;;0.60;0.60;;;;;;;;;;7332310;19;162388;-17
2021/10/20 13:56:06;;;;;;;0.60;0.60;;;;;;;;;;7326527;19;153956;-20
2021/10/20 13:58:34;;;;;;;0.47;0.47;;;;;;;;;;7330896;19;153671;-16
2021/10/20 14:01:02;;;;;;;0.60;0.60;;;;;;;;;;7323775;19;162113;-16
2021/10/20 14:03:31;;;;;;;0.60;0.60;;;;;;;;;;7328336;19;162685;-16
2021/10/20 14:05:59;;;;;;;0.60;0.50;;;;;;;;;;7329259;19;153977;-17
2021/10/20 14:08:27;;;;;;;2.42;2.22;;;;;;;;;;7328501;19;153504;-17
2021/10/20 14:10:55;;;;;;;2.45;2.25;;;;;;;;;;7325986;19;162378;-15
2021/10/20 14:13:24;;;;;;;2.50;2.30;;;;;;;;;;7328608;19;162365;-16
2021/10/20 14:15:54;;;;;;;2.30;2.10;;;;;;;;;;7332401;19;154017;-16
2021/10/20 14:18:24;;;;;;;2.45;2.25;;;;;;;;;;7331980;19;153528;-14
2021/10/20 14:20:52;;;;;;;2.28;1.90;;;;;;;;;;7331278;19;161771;-17
2021/10/20 14:23:20;;;;;;;2.08;1.98;;;;;;;;;;7323656;19;162579;-17
2021/10/20 14:25:48;;;;;;;2.42;1.92;;;;;;;;;;7330261;19;154180;-17
2021/10/20 14:28:17;;;;;;;2.30;2.10;;;;;;;;;;7326247;19;153544;-17
2021/10/20 14:30:45;;;;;;;2.03;1.90;;;;;;;;;;7326679;19;162110;-16
2021/10/20 14:33:13;;;;;;;1.95;1.85;;;;;;;;;;7328693;19;162544;-16
2021/10/20 14:35:41;;;;;;;2.42;1.85;;;;;;;;;;7320549;19;154247;-15
2021/10/20 14:38:09;;;;;;;1.70;1.60;;;;;;;;;;7331207;19;153628;-19
2021/10/20 14:40:41;;;;;;;1.67;1.58;;;;;;;;;;7324688;19;161786;-18
2021/10/20 14:43:09;;;;;;;1.75;1.65;;;;;;;;;;7327888;19;162621;-19
2021/10/20 14:45:37;;;;;;;1.90;1.80;;;;;;;;;;7325451;19;154118;-18
2021/10/20 14:48:07;;;;;;;1.85;1.75;;;;;;;;;;7329957;19;153867;-14
2021/10/20 14:50:36;;;;;;;1.70;1.60;;;;;;;;;;7323072;19;161960;-13
2021/10/20 14:53:05;;;;;;;1.60;1.50;;;;;;;;;;7323166;19;162485;-15
2021/10/20 14:55:34;;;;;;;1.77;1.67;;;;;;;;;;7322351;19;154698;-17
2021/10/20 14:58:02;;;;;;;1.60;1.50;;;;;;;;;;7332638;19;153639;-15
2021/10/20 15:00:30;;;;;;;1.50;1.40;;;;;;;;;;7328079;19;161799;-15
2021/10/20 15:02:58;;;;;;;1.10;1.10;;;;;;;;;;7327265;19;162471;-16
2021/10/20 15:05:27;;;;;;;1.15;1.15;;;;;;;;;;7328206;19;153960;-17
2021/10/20 15:07:56;;;;;;;1.30;1.20;;;;;;;;;;7329643;19;153547;-16
2021/10/20 15:10:24;;;;;;;2.38;1.00;;;;;;;;;;7335956;19;163455;-16
2021/10/20 15:12:52;;;;;;;1.40;1.23;;;;;;;;;;7338873;19;162671;-17
2021/10/20 15:15:20;;;;;;;1.20;1.10;;;;;;;;;;7335417;19;153944;-18
2021/10/20 15:17:55;;;;;;;1.30;1.20;;;;;;;;;;7334081;19;153778;-17
2021/10/20 15:20:25;;;;;;;0.93;0.93;;;;;;;;;;7335070;19;162045;-18
2021/10/20 15:22:53;;;;;;;1.10;1.00;;;;;;;;;;7335007;19;162592;-18
2021/10/20 15:25:21;;;;;;;1.20;1.10;;;;;;;;;;7334729;19;154066;-16
2021/10/20 15:27:49;;;;;;;1.17;1.17;;;;;;;;;;7332563;19;153581;-18
2021/10/20 15:30:17;;;;;;;1.25;0.90;;;;;;;;;;7333797;19;161781;-18
2021/10/20 15:32:45;;;;;;;1.48;1.38;;;;;;;;;;7332590;19;162578;-15
2021/10/20 15:35:13;;;;;;;1.20;1.00;;;;;;;;;;7333935;19;154195;-15
2021/10/20 15:37:42;;;;;;;0.90;0.90;;;;;;;;;;7333573;19;153514;-16
2021/10/20 15:40:11;;;;;;;1.35;1.05;;;;;;;;;;7334392;19;162137;-17
2021/10/20 15:42:39;;;;;;;1.00;1.00;;;;;;;;;;7334391;19;162437;-16
2021/10/20 15:45:07;;;;;;;0.98;0.98;;;;;;;;;;7334171;19;154124;-18
2021/10/20 15:47:36;;;;;;;0.85;0.85;;;;;;;;;;7334387;19;153766;-18
2021/10/20 15:50:05;;;;;;;1.00;0.98;;;;;;;;;;7333558;19;161754;-18
2021/10/20 15:52:33;;;;;;;1.00;1.00;;;;;;;;;;7333866;19;162357;-16
2021/10/20 15:55:00;;;;;;;0.85;0.85;;;;;;;;;;7334554;19;154359;-18
2021/10/20 15:57:28;;;;;;;1.05;0.90;;;;;;;;;;7333953;19;153759;-14
2021/10/20 15:59:57;;;;;;;0.95;0.95;;;;;;;;;;7331785;19;162113;-15
2021/10/20 16:02:26;;;;;;;0.80;0.80;;;;;;;;;;7336720;19;162580;-15
2021/10/20 16:04:55;;;;;;;0.98;0.75;;;;;;;;;;7334117;19;154201;-15
2021/10/20 16:07:23;;;;;;;0.70;0.70;;;;;;;;;;7333698;19;153627;-15
2021/10/20 16:09:50;;;;;;;0.95;0.60;;;;;;;;;;7333230;19;161976;-15
2021/10/20 16:12:18;;;;;;;0.60;0.60;;;;;;;;;;7330438;19;163054;-22
2021/10/20 16:14:47;;;;;;;0.77;0.50;;;;;;;;;;7334012;19;154058;-19
2021/10/20 16:17:16;;;;;;;0.40;0.40;;;;;;;;;;7334145;19;153652;-16
2021/10/20 16:19:45;;;;;;;0.98;0.75;;;;;;;;;;7332569;19;161944;-19
2021/10/20 16:22:14;;;;;;;2.28;0.65;;;;;;;;;;7333199;19;162384;-15
2021/10/20 16:24:43;;;;;;;0.77;0.50;;;;;;;;;;7332768;19;155087;-14
2021/10/20 16:27:11;;;;;;;0.50;0.50;;;;;;;;;;7332017;19;153747;-17
2021/10/20 16:29:39;;;;;;;0.57;0.57;;;;;;;;;;7333681;19;162133;-16
2021/10/20 16:32:07;;;;;;;0.57;0.50;;;;;;;;;;7334364;19;162482;-16
2021/10/20 16:34:37;;;;;;;0.40;0.40;;;;;;;;;;7336489;19;154248;-19
2021/10/20 16:37:06;;;;;;;0.65;0.40;;;;;;;;;;7335588;19;153688;-18
2021/10/20 16:39:34;;;;;;;0.45;0.45;;;;;;;;;;7335441;19;161849;-17
2021/10/20 16:42:03;;;;;;;0.30;0.30;;;;;;;;;;7336562;19;162540;-18
2021/10/20 16:44:31;;;;;;;0.45;0.40;;;;;;;;;;7335900;19;153983;-17
2021/10/20 16:46:59;;;;;;;0.32;0.32;;;;;;;;;;7330763;19;153720;-16
2021/10/20 16:49:27;;;;;;;0.30;0.30;;;;;;;;;;7333492;19;162032;-18
2021/10/20 16:51:55;;;;;;;0.35;0.32;;;;;;;;;;7329198;19;162692;-17
2021/10/20 16:54:23;;;;;;;0.50;0.50;;;;;;;;;;7332570;19;154131;-18
2021/10/20 16:56:52;;;;;;;0.30;0.30;;;;;;;;;;7331492;19;153720;-17
2021/10/20 16:59:21;;;;;;;0.55;0.40;;;;;;;;;;7331926;19;161984;-18
2021/10/20 17:01:49;;;;;;;0.30;0.30;;;;;;;;;;7331247;19;162392;-19
2021/10/20 17:04:17;;;;;;;0.40;0.40;;;;;;;;;;7331674;19;154276;-15
2021/10/20 17:06:45;;;;;;;0.40;0.40;;;;;;;;;;7332416;19;153720;-16
2021/10/20 17:09:13;;;;;;;0.30;0.30;;;;;;;;;;7332088;19;161924;-18
2021/10/20 17:11:41;;;;;;;0.30;0.30;;;;;;;;;;7329973;19;162379;-18
2021/10/20 17:14:09;;;;;;;0.32;0.32;;;;;;;;;;7332158;19;154139;-18
2021/10/20 17:16:37;;;;;;;0.35;0.35;;;;;;;;;;7331058;19;153627;-17
2021/10/20 17:19:06;;;;;;;0.20;0.20;;;;;;;;;;7331798;19;162041;-16
2021/10/20 17:21:34;;;;;;;0.40;0.40;;;;;;;;;;7331851;19;162172;-17
2021/10/20 17:24:02;;;;;;;0.35;0.35;;;;;;;;;;7331891;19;154235;-17
2021/10/20 17:26:30;;;;;;;0.20;0.20;;;;;;;;;;7331879;19;153636;-18
2021/10/20 17:28:58;;;;;;;0.30;0.30;;;;;;;;;;7331652;19;161610;-18
2021/10/20 17:31:26;;;;;;;0.30;0.30;;;;;;;;;;7328360;19;162637;-18
2021/10/20 17:33:54;;;;;;;0.40;0.40;;;;;;;;;;7330571;19;154218;-19
2021/10/20 17:36:24;;;;;;;0.30;0.30;;;;;;;;;;7331854;19;153648;-15
2021/10/20 17:38:52;;;;;;;0.20;0.20;;;;;;;;;;7330076;19;161833;-18
2021/10/20 17:41:20;;;;;;;0.38;0.38;;;;;;;;;;7331107;19;162636;-18
2021/10/20 17:43:49;;;;;;;0.30;0.30;;;;;;;;;;7330401;19;154176;-17
2021/10/20 17:46:17;;;;;;;0.20;0.20;;;;;;;;;;7329456;19;153520;-17
2021/10/20 17:48:45;;;;;;;0.20;0.20;;;;;;;;;;7330928;19;161909;-17
2021/10/20 17:51:13;;;;;;;0.30;0.30;;;;;;;;;;7329929;19;162462;-16
2021/10/20 17:53:41;;;;;;;0.30;0.30;;;;;;;;;;7331151;19;153992;-17
2021/10/20 17:56:10;;;;;;;0.40;0.40;;;;;;;;;;7331190;19;153798;-18
2021/10/20 17:58:39;;;;;;;0.30;0.30;;;;;;;;;;7329862;19;161898;-16
2021/10/20 18:01:07;;;;;;;0.32;0.32;;;;;;;;;;7330683;19;162575;-17
2021/10/20 18:03:35;;;;;;;0.30;0.30;;;;;;;;;;7331401;19;153964;-16
2021/10/20 18:06:03;;;;;;;0.40;0.40;;;;;;;;;;7330965;19;153789;-14
2021/10/20 18:08:31;;;;;;;0.30;0.30;;;;;;;;;;7333411;19;161937;-18
2021/10/20 18:11:00;;;;;;;0.40;0.40;;;;;;;;;;7333164;19;162666;-17
2021/10/20 18:13:28;;;;;;;0.40;0.40;;;;;;;;;;7334169;19;154175;-16
2021/10/20 18:15:56;;;;;;;0.40;0.40;;;;;;;;;;7330221;19;153664;-17
2021/10/20 18:18:25;;;;;;;0.35;0.30;;;;;;;;;;7328891;19;162015;-18
2021/10/20 18:20:53;;;;;;;0.30;0.30;;;;;;;;;;7329936;19;162662;-16
2021/10/20 18:23:22;;;;;;;0.30;0.30;;;;;;;;;;7330468;19;154027;-17
2021/10/20 18:25:50;;;;;;;0.30;0.30;;;;;;;;;;7328958;19;153718;-18
2021/10/20 18:28:18;;;;;;;0.20;0.20;;;;;;;;;;7329835;19;161801;-16
2021/10/20 18:30:46;;;;;;;0.22;0.22;;;;;;;;;;7329616;19;162398;-19
2021/10/20 18:33:14;;;;;;;0.40;0.40;;;;;;;;;;7327438;19;153736;-19
2021/10/20 18:35:42;;;;;;;0.40;0.40;;;;;;;;;;7328990;19;153854;-16
2021/10/20 18:38:10;;;;;;;0.73;0.30;;;;;;;;;;7330817;19;161753;-15
2021/10/20 18:40:38;;;;;;;0.35;0.30;;;;;;;;;;7332566;19;162495;-17
2021/10/20 18:43:07;;;;;;;0.32;0.32;;;;;;;;;;7332408;19;154514;-17
2021/10/20 18:45:36;;;;;;;0.30;0.30;;;;;;;;;;7331972;19;153688;-16
2021/10/20 18:48:06;;;;;;;0.47;0.30;;;;;;;;;;7331516;19;161807;-17
2021/10/20 18:50:36;;;;;;;0.30;0.30;;;;;;;;;;7330535;19;162682;-17
2021/10/20 18:53:04;;;;;;;0.40;0.40;;;;;;;;;;7329091;19;154012;-18
2021/10/20 18:55:33;;;;;;;0.20;0.20;;;;;;;;;;7331043;19;153518;-19
2021/10/20 18:58:01;;;;;;;0.25;0.25;;;;;;;;;;7331225;19;161763;-16
2021/10/20 19:00:37;;;;;;;0.20;0.20;;;;;;;;;;7330583;19;162529;-18
2021/10/20 19:03:09;;;;;;;0.25;0.25;;;;;;;;;;7332595;19;153988;-16
2021/10/20 19:05:40;;;;;;;0.20;0.20;;;;;;;;;;7331183;19;153658;-18
2021/10/20 19:08:10;;;;;;;0.30;0.30;;;;;;;;;;7330879;19;161778;-17
2021/10/20 19:10:40;;;;;;;0.17;0.17;;;;;;;;;;7326872;19;162526;-18
2021/10/20 19:13:09;;;;;;;0.20;0.20;;;;;;;;;;7325301;19;154078;-19
2021/10/20 19:15:41;;;;;;;0.20;0.20;;;;;;;;;;7328322;19;153844;-17
2021/10/20 19:18:11;;;;;;;0.70;0.45;;;;;;;;;;7332682;19;161934;-17
2021/10/20 19:20:40;;;;;;;0.30;0.30;;;;;;;;;;7330675;19;162699;-18
2021/10/20 19:23:08;;;;;;;1.77;1.30;;;;;;;;;;7328827;19;153947;-17
2021/10/20 19:25:36;;;;;;;3.85;1.17;;;;;;;;;;7328876;19;153496;-15
2021/10/20 19:28:04;;;;;;;2.72;1.70;;;;;;;;;;7328273;19;161844;-18
2021/10/20 19:30:32;;;;;;;2.17;1.55;;;;;;;;;;7328022;19;162401;-19
2021/10/20 19:33:00;;;;;;;2.13;1.35;;;;;;;;;;7326158;19;154456;-18
2021/10/20 19:35:30;;;;;;;1.67;1.10;;;;;;;;;;7330586;19;153647;-15
2021/10/20 19:38:02;;;;;;;1.85;1.13;;;;;;;;;;7329773;19;161851;-16
2021/10/20 19:40:31;;;;;;;1.63;1.52;;;;;;;;;;7329505;19;162611;-16
2021/10/20 19:42:59;;;;;;;8.30;6.72;;;;;;;;;;7330747;19;154187;-16
2021/10/20 19:45:27;;;;;;;6.03;5.18;;;;;;;;;;7328207;19;153712;-17
2021/10/20 19:47:55;;;;;;;2.90;2.53;;;;;;;;;;7328773;19;161817;-16
2021/10/20 19:50:23;;;;;;;5.22;4.30;;;;;;;;;;7329038;19;162391;-18
2021/10/20 19:52:52;;;;;;;4.70;4.25;;;;;;;;;;7328309;19;154699;-16
2021/10/20 19:55:20;;;;;;;4.80;4.28;;;;;;;;;;7333089;19;153521;-15
2021/10/20 19:57:48;;;;;;;4.63;4.22;;;;;;;;;;7335798;19;161896;-15
2021/10/20 20:00:16;;;;;;;4.80;4.40;;;;;;;;;;7335459;19;162662;-17
2021/10/20 20:02:44;;;;;;;4.88;4.35;;;;;;;;;;7336952;19;153928;-17
2021/10/20 20:05:12;;;;;;;4.57;4.18;;;;;;;;;;7337715;19;153658;-17
2021/10/20 20:07:40;;;;;;;4.75;4.30;;;;;;;;;;7334738;19;161894;-17
2021/10/20 20:10:08;;;;;;;5.38;4.32;;;;;;;;;;7337203;19;162555;-18
2021/10/20 20:12:38;;;;;;;4.90;4.50;;;;;;;;;;7336530;19;154012;-15
2021/10/20 20:15:08;;;;;;;5.03;4.60;;;;;;;;;;7336523;19;153799;-16
2021/10/20 20:17:36;;;;;;;5.53;5.03;;;;;;;;;;7335412;19;161842;-17
2021/10/20 20:20:06;;;;;;;6.55;5.70;;;;;;;;;;7336860;19;162296;-16
2021/10/20 20:22:34;;;;;;;5.78;5.18;;;;;;;;;;7336990;19;154476;-17
2021/10/20 20:25:04;;;;;;;5.63;5.03;;;;;;;;;;7336045;19;153785;-17
2021/10/20 20:27:32;;;;;;;5.80;5.30;;;;;;;;;;7336401;19;161782;-16
2021/10/20 20:30:00;;;;;;;5.60;5.10;;;;;;;;;;7334520;19;162455;-16
2021/10/20 20:32:28;;;;;;;5.40;4.90;;;;;;;;;;7334947;19;154024;-14
2021/10/20 20:34:57;;;;;;;5.22;4.82;;;;;;;;;;7335968;19;153867;-18
2021/10/20 20:37:25;;;;;;;5.43;4.95;;;;;;;;;;7336232;19;162038;-15
2021/10/20 20:39:54;;;;;;;5.45;4.95;;;;;;;;;;7336414;19;162441;-16
2021/10/20 20:42:21;;;;;;;5.07;4.68;;;;;;;;;;7336213;19;154106;-15
2021/10/20 20:44:50;;;;;;;5.30;4.80;;;;;;;;;;7334400;19;153474;-14
2021/10/20 20:47:18;;;;;;;5.20;4.70;;;;;;;;;;7333299;19;162111;-16
2021/10/20 20:49:47;;;;;;;4.78;4.38;;;;;;;;;;7334759;19;162460;-17
2021/10/20 20:52:17;;;;;;;5.53;5.03;;;;;;;;;;7333640;19;154125;-15
2021/10/20 20:54:45;;;;;;;4.90;4.50;;;;;;;;;;7336279;19;153786;-14
2021/10/20 20:57:13;;;;;;;5.65;4.90;;;;;;;;;;7335244;19;162062;-13
2021/10/20 20:59:41;;;;;;;5.28;4.85;;;;;;;;;;7335453;19;162388;-15
2021/10/20 21:02:12;;;;;;;5.25;4.82;;;;;;;;;;7333637;19;154002;-16
2021/10/20 21:04:40;;;;;;;5.05;4.65;;;;;;;;;;7335203;19;153487;-16
2021/10/20 21:07:08;;;;;;;5.13;4.72;;;;;;;;;;7332283;19;161865;-15
2021/10/20 21:09:36;;;;;;;4.80;4.30;;;;;;;;;;7335047;19;162433;-15
2021/10/20 21:12:07;;;;;;;5.35;4.88;;;;;;;;;;7333335;19;153997;-17
2021/10/20 21:14:36;;;;;;;5.35;4.85;;;;;;;;;;7333809;19;153581;-16
2021/10/20 21:17:04;;;;;;;5.00;4.60;;;;;;;;;;7335237;19;161823;-16
2021/10/20 21:19:32;;;;;;;5.13;4.72;;;;;;;;;;7334860;19;162535;-16
2021/10/20 21:22:00;;;;;;;5.18;4.75;;;;;;;;;;7335510;19;153964;-17
2021/10/20 21:24:29;;;;;;;7.30;6.60;;;;;;;;;;7334484;19;153520;-20
2021/10/20 21:26:57;;;;;;;5.75;5.25;;;;;;;;;;7334178;19;162230;-17
2021/10/20 21:29:25;;;;;;;5.25;4.75;;;;;;;;;;7335052;19;162362;-17
2021/10/20 21:31:53;;;;;;;5.65;5.15;;;;;;;;;;7334113;19;153810;-18
2021/10/20 21:34:21;;;;;;;5.63;5.13;;;;;;;;;;7332095;19;153513;-18